Terminal Aerodrome Forecast
Issued by NWS Wilmington, NC

Home | Current Version | Previous Version | Text Only | Print | Product List | Glossary On
Versions: 1 2 3 4 5 6 7 8 9 10 11 12 13 14 15 16 17 18
693
FTUS42 KILM 231120
TAFMYR
TAF
KMYR 231120Z 2312/2412 24007KT P6SM SCT022 SCT200
      TEMPO 2312/2314 BKN022
     FM231500 21011KT P6SM SCT028
      TEMPO 2315/2317 BKN028
     FM231700 20016G24KT P6SM VCTS SCT030CB SCT100
     FM240000 22015KT P6SM SCT120=

USA.gov is the U.S. government's official web portal to all federal, state and local government web resources and services.